createdAt,value
2019-05-13T00:04:07.063Z,0
2019-05-13T00:09:07.799Z,0
2019-05-13T00:13:06.908Z,0
2019-05-13T00:18:06.700Z,0
2019-05-13T00:23:06.942Z,0
2019-05-13T00:28:07.157Z,0
2019-05-13T00:33:07.278Z,0
2019-05-13T00:37:14.784Z,0
2019-05-13T00:38:06.884Z,0
2019-05-13T00:43:06.689Z,0
2019-05-13T00:47:06.926Z,0
2019-05-13T00:52:07.167Z,0
2019-05-13T00:57:07.379Z,0
2019-05-13T01:02:08.374Z,0
2019-05-13T01:07:29.155Z,0
2019-05-13T01:12:07.765Z,0
2019-05-13T01:17:06.761Z,0
2019-05-13T01:21:07.517Z,0
2019-05-13T01:26:07.422Z,0
2019-05-13T01:31:07.394Z,0
2019-05-13T01:36:07.549Z,0
2019-05-13T01:41:07.254Z,0
2019-05-13T01:46:07.384Z,0
2019-05-13T01:50:07.386Z,0
2019-05-13T01:55:06.967Z,0
2019-05-13T02:00:09.260Z,0
2019-05-13T02:05:07.281Z,0
2019-05-13T02:10:06.984Z,0
2019-05-13T02:15:08.580Z,0
2019-05-13T02:20:07.557Z,0
2019-05-13T02:25:06.909Z,0
2019-05-13T02:29:07.668Z,0
2019-05-13T02:34:07.840Z,0
2019-05-13T02:39:07.535Z,0.83
2019-05-13T02:44:07.772Z,1.67
2019-05-13T02:49:07.260Z,4.17
2019-05-13T02:54:07.456Z,9.17
2019-05-13T02:59:07.659Z,18.33
2019-05-13T03:03:08.223Z,37.5
2019-05-13T03:04:06.905Z,37.5
2019-05-13T03:08:07.697Z,66.67
2019-05-13T03:13:07.321Z,112.5
2019-05-13T03:18:07.605Z,177.5
2019-05-13T03:23:07.874Z,266.67
2019-05-13T03:28:07.134Z,384.17
2019-05-13T03:33:25.367Z,540
2019-05-13T03:37:14.601Z,714.17
2019-05-13T03:42:06.900Z,889.17
2019-05-13T03:47:07.119Z,1071.67
2019-05-13T03:52:06.760Z,1255
2019-05-13T03:57:06.882Z,1439.17
2019-05-13T04:02:07.264Z,1617.5
2019-05-13T04:07:07.490Z,1799.17
2019-05-13T04:12:07.079Z,2001.67
2019-05-13T04:16:07.698Z,4782.5
2019-05-13T04:21:06.157Z,5166.67
2019-05-13T04:26:07.550Z,5525.83
2019-05-13T04:31:07.391Z,6433.33
2019-05-13T04:36:07.527Z,7176.67
2019-05-13T04:41:07.122Z,6974.17
2019-05-13T04:46:07.659Z,8105.83
2019-05-13T04:50:06.797Z,9508.33
2019-05-13T04:55:06.873Z,10715
2019-05-13T05:00:08.766Z,10060
2019-05-13T05:05:07.676Z,8420
2019-05-13T05:10:42.769Z,9502.5
2019-05-13T05:15:08.360Z,13222.5
2019-05-13T05:20:07.429Z,12050
2019-05-13T05:25:07.675Z,8676.67
2019-05-13T05:30:08.223Z,4821.67
2019-05-13T05:34:07.528Z,9305.83
2019-05-13T05:39:07.132Z,12003.33
2019-05-13T05:44:07.346Z,16826.67
2019-05-13T05:49:07.324Z,10463.33
2019-05-13T05:54:07.545Z,5009.17
2019-05-13T05:58:07.045Z,13200.83
2019-05-13T06:03:06.786Z,17478.33
2019-05-13T06:08:06.991Z,22919.17
2019-05-13T06:13:07.489Z,23400
2019-05-13T06:18:06.522Z,18513.33
2019-05-13T06:23:06.779Z,25592.5
2019-05-13T06:28:07.003Z,26842.5
2019-05-13T06:33:07.102Z,25296.67
2019-05-13T06:38:07.312Z,24521.67
2019-05-13T06:42:07.541Z,22296.67
2019-05-13T06:47:07.508Z,10120.83
2019-05-13T06:52:07.735Z,7776.67
2019-05-13T06:57:07.874Z,15489.17
2019-05-13T07:02:06.781Z,29987.5
2019-05-13T07:06:07.720Z,30490.83
2019-05-13T07:12:06.862Z,32959.16
2019-05-13T07:16:07.640Z,30286.67
2019-05-13T07:21:07.799Z,38559.16
2019-05-13T07:26:07.050Z,37963.33
2019-05-13T07:31:07.111Z,39905.83
2019-05-13T07:36:07.303Z,43521.66
2019-05-13T07:40:07.092Z,43315
2019-05-13T07:45:08.822Z,43181.66
2019-05-13T07:50:07.342Z,39849.16
2019-05-13T07:55:07.522Z,39441.66
2019-05-13T08:00:08.849Z,40528.33
2019-05-13T08:05:07.644Z,40673.33
2019-05-13T08:10:07.259Z,47446.66
2019-05-13T08:15:08.816Z,42894.16
2019-05-13T08:19:07.324Z,50680.83
2019-05-13T08:24:06.579Z,46700
2019-05-13T08:29:06.955Z,11735.83
2019-05-13T08:34:07.525Z,15561.67
2019-05-13T08:39:07.247Z,54612.5
2019-05-13T08:43:07.673Z,49464.16
2019-05-13T08:44:06.646Z,49464.16
2019-05-13T08:48:06.684Z,19631.67
2019-05-13T08:53:06.923Z,12495
2019-05-13T08:58:07.078Z,52037.5
2019-05-13T09:03:07.125Z,54612.5
2019-05-13T09:08:07.338Z,53399.16
2019-05-13T09:13:07.103Z,42972.5
2019-05-13T09:17:07.522Z,12169.17
2019-05-13T09:18:07.474Z,12169.17
2019-05-13T09:22:06.998Z,54612.5
2019-05-13T09:27:06.493Z,36386.66
2019-05-13T09:32:07.048Z,54612.5
2019-05-13T09:37:07.115Z,27865.83
2019-05-13T09:42:06.752Z,54612.5
2019-05-13T09:46:07.822Z,25213.33
2019-05-13T09:47:06.793Z,25213.33
2019-05-13T09:51:07.132Z,54612.5
2019-05-13T09:56:07.277Z,54612.5
2019-05-13T10:01:06.914Z,49612.5
2019-05-13T10:06:07.018Z,54612.5
2019-05-13T10:11:06.558Z,37507.5
2019-05-13T10:16:06.786Z,22844.17
2019-05-13T10:20:07.882Z,52650
2019-05-13T10:21:06.819Z,52650
2019-05-13T10:25:07.142Z,33578.33
2019-05-13T10:30:07.591Z,54612.5
2019-05-13T10:35:06.947Z,54612.5
2019-05-13T10:40:07.948Z,54612.5
2019-05-13T10:45:08.723Z,17134.17
2019-05-13T10:49:07.621Z,49359.16
2019-05-13T10:54:07.764Z,54612.5
2019-05-13T10:59:05.898Z,54465.83
2019-05-13T11:04:07.127Z,14372.5
2019-05-13T11:09:07.616Z,54612.5
2019-05-13T11:14:15.968Z,54612.5
2019-05-13T11:19:07.029Z,54612.5
2019-05-13T11:24:07.230Z,54612.5
2019-05-13T11:28:07.603Z,54612.5
2019-05-13T11:33:10.844Z,9938.33
2019-05-13T11:38:06.994Z,54612.5
2019-05-13T11:43:07.528Z,54612.5
2019-05-13T11:48:07.596Z,54612.5
2019-05-13T11:53:37.571Z,15272.5
2019-05-13T11:58:07.414Z,27034.17
2019-05-13T12:02:07.385Z,52396.66
2019-05-13T12:07:06.646Z,54612.5
2019-05-13T12:12:07.362Z,54612.5
2019-05-13T12:17:07.455Z,54612.5
2019-05-13T12:22:06.630Z,51200.83
2019-05-13T12:27:06.968Z,15387.5
2019-05-13T12:31:06.633Z,50876.66
2019-05-13T12:36:06.941Z,21236.67
2019-05-13T12:41:06.615Z,17720.83
2019-05-13T12:46:08.219Z,17380
2019-05-13T12:51:07.180Z,32527.5
2019-05-13T12:55:06.804Z,54612.5
2019-05-13T12:56:06.846Z,54612.5
2019-05-13T13:00:08.730Z,22886.67
2019-05-13T13:05:08.882Z,15501.67
2019-05-13T13:10:07.555Z,11840
2019-05-13T13:15:32.726Z,54612.5
2019-05-13T13:20:16.160Z,54612.5
2019-05-13T13:25:06.454Z,54612.5
2019-05-13T13:30:09.969Z,51521.66
2019-05-13T13:35:06.687Z,54612.5
2019-05-13T13:39:07.661Z,13884.17
2019-05-13T13:44:08.016Z,12279.17
2019-05-13T13:49:07.235Z,18510
2019-05-13T13:54:06.520Z,13655.83
2019-05-13T13:59:06.762Z,13443.33
2019-05-13T14:03:08.010Z,12801.67
2019-05-13T14:04:07.345Z,12801.67
2019-05-13T14:08:07.512Z,21868.33
2019-05-13T14:13:07.224Z,19665.83
2019-05-13T14:18:07.521Z,15723.33
2019-05-13T14:23:06.825Z,13930.83
2019-05-13T14:28:07.418Z,13779.17
2019-05-13T14:33:07.022Z,48055
2019-05-13T14:37:07.948Z,54612.5
2019-05-13T14:38:06.553Z,54612.5
2019-05-13T14:42:07.348Z,7932.5
2019-05-13T14:47:07.313Z,7805
2019-05-13T14:52:08.051Z,39375.83
2019-05-13T14:57:06.013Z,12810.83
2019-05-13T15:02:07.364Z,31013.33
2019-05-13T15:07:07.512Z,42599.16
2019-05-13T15:12:08.293Z,38164.16
2019-05-13T15:16:06.836Z,34141.66
2019-05-13T15:21:06.107Z,26547.5
2019-05-13T15:26:06.541Z,9010.83
2019-05-13T15:31:06.248Z,11508.33
2019-05-13T15:36:06.420Z,30615
2019-05-13T15:41:05.918Z,28575
2019-05-13T15:45:09.126Z,26124.17
2019-05-13T15:46:06.616Z,26124.17
2019-05-13T15:50:07.180Z,28315
2019-05-13T15:55:07.474Z,27572.5
2019-05-13T16:00:08.399Z,26605
2019-05-13T16:05:06.444Z,26754.17
2019-05-13T16:10:06.268Z,12133.33
2019-05-13T16:15:07.742Z,26045.83
2019-05-13T16:19:07.884Z,26769.17
2019-05-13T16:20:06.864Z,26769.17
2019-05-13T16:24:07.583Z,12350.83
2019-05-13T16:29:07.633Z,6176.67
2019-05-13T16:34:07.066Z,5739.17
2019-05-13T16:39:07.640Z,5590.83
2019-05-13T16:44:06.908Z,6518.33
2019-05-13T16:49:06.174Z,5921.67
2019-05-13T16:53:07.579Z,5416.67
2019-05-13T16:58:07.734Z,4611.67
2019-05-13T17:03:07.049Z,5450
2019-05-13T17:08:07.245Z,12589.17
2019-05-13T17:13:06.738Z,9712.5
2019-05-13T17:18:15.608Z,4764.17
2019-05-13T17:22:07.530Z,9613.33
2019-05-13T17:23:07.197Z,9613.33
2019-05-13T17:27:06.866Z,4390
2019-05-13T17:32:07.034Z,3816.67
2019-05-13T17:37:07.211Z,2903.33
2019-05-13T17:42:07.773Z,2604.17
2019-05-13T17:47:07.758Z,2315
2019-05-13T17:52:06.555Z,4609.17
2019-05-13T17:56:07.324Z,3133.33
2019-05-13T18:01:07.423Z,3123.33
2019-05-13T18:06:06.785Z,3248.33
2019-05-13T18:11:07.204Z,1640
2019-05-13T18:16:06.615Z,1569.17
2019-05-13T18:21:06.901Z,1105.83
2019-05-13T18:26:07.036Z,1145.83
2019-05-13T18:30:11.731Z,862.5
2019-05-13T18:35:07.733Z,689.17
2019-05-13T18:40:07.581Z,518.33
2019-05-13T18:45:11.266Z,370
2019-05-13T18:50:07.858Z,254.17
2019-05-13T18:55:06.797Z,173.33
2019-05-13T19:00:10.972Z,106.67
2019-05-13T19:04:06.945Z,66.67
2019-05-13T19:09:07.880Z,39.17
2019-05-13T19:14:06.004Z,20.83
2019-05-13T19:19:19.968Z,10.83
2019-05-13T19:24:08.683Z,5
2019-05-13T19:29:06.451Z,1.67
2019-05-13T19:34:06.948Z,0.83
2019-05-13T19:38:07.685Z,0
2019-05-13T19:43:07.026Z,0
2019-05-13T19:48:07.002Z,0
2019-05-13T19:53:07.185Z,0
2019-05-13T19:58:07.378Z,0
2019-05-13T20:03:06.787Z,0
2019-05-13T20:08:06.950Z,0
2019-05-13T20:12:07.261Z,0
2019-05-13T20:13:07.003Z,0
2019-05-13T20:17:07.789Z,0
2019-05-13T20:22:07.307Z,0
2019-05-13T20:27:07.575Z,0
2019-05-13T20:32:07.825Z,0
2019-05-13T20:37:06.856Z,0
2019-05-13T20:41:06.776Z,0
2019-05-13T20:52:07.711Z,0
2019-05-13T20:57:06.839Z,0
2019-05-13T21:02:07.183Z,0
2019-05-13T21:07:07.364Z,0
2019-05-13T21:11:06.933Z,0
2019-05-13T21:12:06.646Z,0
2019-05-13T21:16:07.946Z,0
2019-05-13T21:21:07.281Z,0
2019-05-13T21:26:07.520Z,0
2019-05-13T21:31:07.430Z,0
2019-05-13T21:36:07.808Z,0
2019-05-13T21:41:07.444Z,0
2019-05-13T21:45:08.001Z,0
2019-05-13T21:50:06.216Z,0
2019-05-13T21:55:06.466Z,0
2019-05-13T22:00:09.381Z,0
2019-05-13T22:05:07.591Z,0
2019-05-13T22:10:06.196Z,0
2019-05-13T22:15:07.971Z,0
2019-05-13T22:20:06.136Z,0
2019-05-13T22:25:06.226Z,0
2019-05-13T22:29:07.239Z,0
2019-05-13T22:34:07.475Z,0
2019-05-13T22:39:07.141Z,0
2019-05-13T22:44:07.527Z,0
2019-05-13T22:49:06.733Z,0
2019-05-13T22:54:06.887Z,0
2019-05-13T22:59:06.961Z,0
2019-05-13T23:03:07.494Z,0
2019-05-13T23:08:07.526Z,0
2019-05-13T23:13:07.179Z,0
2019-05-13T23:18:07.271Z,0
2019-05-13T23:23:07.502Z,0
2019-05-13T23:28:06.795Z,0
2019-05-13T23:33:07.224Z,0
2019-05-13T23:37:06.913Z,0
2019-05-13T23:42:07.592Z,0
2019-05-13T23:47:07.805Z,0
2019-05-13T23:52:07.069Z,0
2019-05-13T23:57:07.228Z,0
